sensor_id;sensor_type;location;lat;lon;timestamp;temperature;humidity
27940;DHT22;15275;51.716;14.324;2022-09-09T00:02:04;18.80;77.90
27940;DHT22;15275;51.716;14.324;2022-09-09T00:07:49;18.70;78.00
27940;DHT22;15275;51.716;14.324;2022-09-09T00:10:22;18.70;78.30
27940;DHT22;15275;51.716;14.324;2022-09-09T00:13:24;18.60;78.00
27940;DHT22;15275;51.716;14.324;2022-09-09T00:16:15;18.60;78.50
27940;DHT22;15275;51.716;14.324;2022-09-09T00:18:49;18.60;78.40
27940;DHT22;15275;51.716;14.324;2022-09-09T00:21:26;18.50;78.40
27940;DHT22;15275;51.716;14.324;2022-09-09T00:23:58;18.50;78.50
27940;DHT22;15275;51.716;14.324;2022-09-09T00:26:32;18.50;78.40
27940;DHT22;15275;51.716;14.324;2022-09-09T00:31:34;18.50;78.50
27940;DHT22;15275;51.716;14.324;2022-09-09T00:34:16;18.40;78.50
27940;DHT22;15275;51.716;14.324;2022-09-09T00:36:45;18.40;78.70
27940;DHT22;15275;51.716;14.324;2022-09-09T00:39:34;18.40;78.40
27940;DHT22;15275;51.716;14.324;2022-09-09T00:42:14;18.40;78.70
27940;DHT22;15275;51.716;14.324;2022-09-09T00:45:01;18.30;78.30
27940;DHT22;15275;51.716;14.324;2022-09-09T00:47:49;18.30;78.50
27940;DHT22;15275;51.716;14.324;2022-09-09T00:50:45;18.30;78.50
27940;DHT22;15275;51.716;14.324;2022-09-09T01:01:33;18.20;78.50
27940;DHT22;15275;51.716;14.324;2022-09-09T01:04:01;18.20;78.20
27940;DHT22;15275;51.716;14.324;2022-09-09T01:06:33;18.10;78.30
27940;DHT22;15275;51.716;14.324;2022-09-09T01:09:22;18.10;78.40
27940;DHT22;15275;51.716;14.324;2022-09-09T01:12:24;18.10;78.70
27940;DHT22;15275;51.716;14.324;2022-09-09T01:15:21;18.10;78.50
27940;DHT22;15275;51.716;14.324;2022-09-09T01:18:56;18.10;78.80
27940;DHT22;15275;51.716;14.324;2022-09-09T01:24:00;18.10;78.60
27940;DHT22;15275;51.716;14.324;2022-09-09T01:26:42;18.10;79.00
27940;DHT22;15275;51.716;14.324;2022-09-09T01:29:11;18.10;78.70
27940;DHT22;15275;51.716;14.324;2022-09-09T01:31:40;18.10;78.70
27940;DHT22;15275;51.716;14.324;2022-09-09T01:34:15;18.10;78.70
27940;DHT22;15275;51.716;14.324;2022-09-09T01:39:23;18.10;78.70
27940;DHT22;15275;51.716;14.324;2022-09-09T01:41:49;18.10;78.60
27940;DHT22;15275;51.716;14.324;2022-09-09T01:44:15;18.10;78.50
27940;DHT22;15275;51.716;14.324;2022-09-09T01:46:41;18.20;78.50
27940;DHT22;15275;51.716;14.324;2022-09-09T01:49:07;18.20;78.50
27940;DHT22;15275;51.716;14.324;2022-09-09T01:51:34;18.20;78.40
27940;DHT22;15275;51.716;14.324;2022-09-09T01:54:02;18.20;78.40
27940;DHT22;15275;51.716;14.324;2022-09-09T01:57:11;18.20;78.40
27940;DHT22;15275;51.716;14.324;2022-09-09T02:07:46;18.20;78.10
27940;DHT22;15275;51.716;14.324;2022-09-09T02:10:22;18.30;78.00
27940;DHT22;15275;51.716;14.324;2022-09-09T02:13:02;18.20;78.10
27940;DHT22;15275;51.716;14.324;2022-09-09T02:18:15;18.20;77.80
27940;DHT22;15275;51.716;14.324;2022-09-09T02:20:45;18.20;77.80
27940;DHT22;15275;51.716;14.324;2022-09-09T02:23:11;18.20;77.70
27940;DHT22;15275;51.716;14.324;2022-09-09T02:25:40;18.20;77.70
27940;DHT22;15275;51.716;14.324;2022-09-09T02:28:08;18.20;77.70
27940;DHT22;15275;51.716;14.324;2022-09-09T02:30:37;18.20;77.80
27940;DHT22;15275;51.716;14.324;2022-09-09T02:33:04;18.20;77.80
27940;DHT22;15275;51.716;14.324;2022-09-09T02:35:34;18.20;77.70
27940;DHT22;15275;51.716;14.324;2022-09-09T02:38:08;18.20;77.60
27940;DHT22;15275;51.716;14.324;2022-09-09T02:40:36;18.20;77.60
27940;DHT22;15275;51.716;14.324;2022-09-09T02:43:02;18.20;77.50
27940;DHT22;15275;51.716;14.324;2022-09-09T02:45:36;18.10;77.50
27940;DHT22;15275;51.716;14.324;2022-09-09T02:56:40;18.10;77.40
27940;DHT22;15275;51.716;14.324;2022-09-09T02:59:07;18.00;77.30
27940;DHT22;15275;51.716;14.324;2022-09-09T03:01:33;18.00;77.30
27940;DHT22;15275;51.716;14.324;2022-09-09T03:04:02;18.00;77.40
27940;DHT22;15275;51.716;14.324;2022-09-09T03:06:30;17.90;77.40
27940;DHT22;15275;51.716;14.324;2022-09-09T03:08:56;17.90;77.40
27940;DHT22;15275;51.716;14.324;2022-09-09T03:11:22;17.90;77.50
27940;DHT22;15275;51.716;14.324;2022-09-09T03:13:48;17.90;77.50
27940;DHT22;15275;51.716;14.324;2022-09-09T03:16:14;17.90;77.50
27940;DHT22;15275;51.716;14.324;2022-09-09T03:18:40;17.90;77.50
27940;DHT22;15275;51.716;14.324;2022-09-09T03:21:06;17.90;77.50
27940;DHT22;15275;51.716;14.324;2022-09-09T03:23:32;17.90;77.50
27940;DHT22;15275;51.716;14.324;2022-09-09T03:25:58;17.90;77.50
27940;DHT22;15275;51.716;14.324;2022-09-09T03:28:24;17.90;77.50
27940;DHT22;15275;51.716;14.324;2022-09-09T03:30:59;17.90;77.50
27940;DHT22;15275;51.716;14.324;2022-09-09T03:33:26;18.00;77.50
27940;DHT22;15275;51.716;14.324;2022-09-09T03:35:51;17.90;77.40
27940;DHT22;15275;51.716;14.324;2022-09-09T03:38:18;17.90;77.40
27940;DHT22;15275;51.716;14.324;2022-09-09T03:40:55;17.90;77.40
27940;DHT22;15275;51.716;14.324;2022-09-09T03:43:23;17.90;77.50
27940;DHT22;15275;51.716;14.324;2022-09-09T03:45:50;17.90;77.30
27940;DHT22;15275;51.716;14.324;2022-09-09T03:48:17;17.90;77.20
27940;DHT22;15275;51.716;14.324;2022-09-09T03:50:47;17.90;77.20
27940;DHT22;15275;51.716;14.324;2022-09-09T03:53:16;17.90;77.20
27940;DHT22;15275;51.716;14.324;2022-09-09T03:55:47;17.90;77.00
27940;DHT22;15275;51.716;14.324;2022-09-09T03:58:16;17.80;77.10
27940;DHT22;15275;51.716;14.324;2022-09-09T04:00:56;17.80;77.00
27940;DHT22;15275;51.716;14.324;2022-09-09T04:03:24;17.80;77.00
27940;DHT22;15275;51.716;14.324;2022-09-09T04:05:54;17.70;76.90
27940;DHT22;15275;51.716;14.324;2022-09-09T04:08:22;17.70;76.90
27940;DHT22;15275;51.716;14.324;2022-09-09T04:10:52;17.60;77.00
27940;DHT22;15275;51.716;14.324;2022-09-09T04:13:19;17.60;76.90
27940;DHT22;15275;51.716;14.324;2022-09-09T04:15:51;17.50;77.00
27940;DHT22;15275;51.716;14.324;2022-09-09T04:18:18;17.50;77.10
27940;DHT22;15275;51.716;14.324;2022-09-09T04:20:52;17.50;77.10
27940;DHT22;15275;51.716;14.324;2022-09-09T04:23:19;17.40;77.20
27940;DHT22;15275;51.716;14.324;2022-09-09T04:25:50;17.40;77.20
27940;DHT22;15275;51.716;14.324;2022-09-09T04:28:19;17.40;77.30
27940;DHT22;15275;51.716;14.324;2022-09-09T04:30:46;17.40;77.30
27940;DHT22;15275;51.716;14.324;2022-09-09T04:33:12;17.30;77.30
27940;DHT22;15275;51.716;14.324;2022-09-09T04:35:43;17.30;77.30
27940;DHT22;15275;51.716;14.324;2022-09-09T04:38:10;17.30;77.40
27940;DHT22;15275;51.716;14.324;2022-09-09T04:40:36;17.30;77.40
27940;DHT22;15275;51.716;14.324;2022-09-09T04:45:47;17.30;77.60
27940;DHT22;15275;51.716;14.324;2022-09-09T04:48:13;17.30;77.50
27940;DHT22;15275;51.716;14.324;2022-09-09T04:50:39;17.20;77.30
27940;DHT22;15275;51.716;14.324;2022-09-09T04:53:06;17.20;77.40
27940;DHT22;15275;51.716;14.324;2022-09-09T04:55:33;17.20;77.70
27940;DHT22;15275;51.716;14.324;2022-09-09T04:58:07;17.20;77.80
27940;DHT22;15275;51.716;14.324;2022-09-09T05:00:37;17.20;78.00
27940;DHT22;15275;51.716;14.324;2022-09-09T05:03:04;17.20;78.00
27940;DHT22;15275;51.716;14.324;2022-09-09T05:05:31;17.20;78.10
27940;DHT22;15275;51.716;14.324;2022-09-09T05:08:07;17.20;78.20
27940;DHT22;15275;51.716;14.324;2022-09-09T05:10:35;17.20;78.20
27940;DHT22;15275;51.716;14.324;2022-09-09T05:13:03;17.20;78.20
27940;DHT22;15275;51.716;14.324;2022-09-09T05:15:29;17.30;78.20
27940;DHT22;15275;51.716;14.324;2022-09-09T05:18:00;17.30;78.20
27940;DHT22;15275;51.716;14.324;2022-09-09T05:20:27;17.30;78.30
27940;DHT22;15275;51.716;14.324;2022-09-09T05:22:54;17.30;78.30
27940;DHT22;15275;51.716;14.324;2022-09-09T05:25:20;17.40;78.50
27940;DHT22;15275;51.716;14.324;2022-09-09T05:27:47;17.40;78.30
27940;DHT22;15275;51.716;14.324;2022-09-09T05:30:14;17.40;78.50
27940;DHT22;15275;51.716;14.324;2022-09-09T05:32:41;17.50;78.50
27940;DHT22;15275;51.716;14.324;2022-09-09T05:35:07;17.50;78.50
27940;DHT22;15275;51.716;14.324;2022-09-09T05:37:32;17.50;78.40
27940;DHT22;15275;51.716;14.324;2022-09-09T05:39:58;17.50;78.40
27940;DHT22;15275;51.716;14.324;2022-09-09T05:42:29;17.60;78.40
27940;DHT22;15275;51.716;14.324;2022-09-09T05:44:56;17.60;78.50
27940;DHT22;15275;51.716;14.324;2022-09-09T05:47:23;17.60;78.50
27940;DHT22;15275;51.716;14.324;2022-09-09T05:49:49;17.70;78.50
27940;DHT22;15275;51.716;14.324;2022-09-09T05:52:15;17.70;78.60
27940;DHT22;15275;51.716;14.324;2022-09-09T05:54:41;17.80;78.50
27940;DHT22;15275;51.716;14.324;2022-09-09T05:57:08;17.80;78.50
27940;DHT22;15275;51.716;14.324;2022-09-09T05:59:34;17.80;78.50
27940;DHT22;15275;51.716;14.324;2022-09-09T06:02:00;17.90;78.50
27940;DHT22;15275;51.716;14.324;2022-09-09T06:04:25;17.90;78.40
27940;DHT22;15275;51.716;14.324;2022-09-09T06:06:51;18.00;78.40
27940;DHT22;15275;51.716;14.324;2022-09-09T06:12:59;18.10;78.50
27940;DHT22;15275;51.716;14.324;2022-09-09T06:15:25;18.20;78.40
27940;DHT22;15275;51.716;14.324;2022-09-09T06:17:55;18.20;78.50
27940;DHT22;15275;51.716;14.324;2022-09-09T06:20:21;18.30;78.60
27940;DHT22;15275;51.716;14.324;2022-09-09T06:22:47;18.40;78.60
27940;DHT22;15275;51.716;14.324;2022-09-09T06:25:14;18.50;78.50
27940;DHT22;15275;51.716;14.324;2022-09-09T06:27:40;18.50;78.40
27940;DHT22;15275;51.716;14.324;2022-09-09T06:30:07;18.60;78.30
27940;DHT22;15275;51.716;14.324;2022-09-09T06:32:35;18.70;78.30
27940;DHT22;15275;51.716;14.324;2022-09-09T06:35:02;18.80;78.20
27940;DHT22;15275;51.716;14.324;2022-09-09T06:37:28;18.90;78.20
27940;DHT22;15275;51.716;14.324;2022-09-09T06:39:54;19.00;78.10
27940;DHT22;15275;51.716;14.324;2022-09-09T06:42:20;19.10;77.90
27940;DHT22;15275;51.716;14.324;2022-09-09T06:44:46;19.20;77.90
27940;DHT22;15275;51.716;14.324;2022-09-09T06:47:12;19.30;77.80
27940;DHT22;15275;51.716;14.324;2022-09-09T06:49:38;19.40;77.60
27940;DHT22;15275;51.716;14.324;2022-09-09T06:52:03;19.50;77.50
27940;DHT22;15275;51.716;14.324;2022-09-09T06:54:29;19.60;77.30
27940;DHT22;15275;51.716;14.324;2022-09-09T06:56:55;19.70;77.10
27940;DHT22;15275;51.716;14.324;2022-09-09T06:59:21;19.80;76.80
27940;DHT22;15275;51.716;14.324;2022-09-09T07:01:47;19.90;76.70
27940;DHT22;15275;51.716;14.324;2022-09-09T07:04:13;20.10;76.50
27940;DHT22;15275;51.716;14.324;2022-09-09T07:06:45;20.20;76.40
27940;DHT22;15275;51.716;14.324;2022-09-09T07:09:14;20.30;76.00
27940;DHT22;15275;51.716;14.324;2022-09-09T07:11:46;20.40;75.90
27940;DHT22;15275;51.716;14.324;2022-09-09T07:14:14;20.50;75.40
27940;DHT22;15275;51.716;14.324;2022-09-09T07:16:41;20.60;75.50
27940;DHT22;15275;51.716;14.324;2022-09-09T07:19:07;20.70;75.30
27940;DHT22;15275;51.716;14.324;2022-09-09T07:21:33;20.80;75.20
27940;DHT22;15275;51.716;14.324;2022-09-09T07:24:00;20.90;74.80
27940;DHT22;15275;51.716;14.324;2022-09-09T07:26:29;21.00;74.40
27940;DHT22;15275;51.716;14.324;2022-09-09T07:28:56;21.10;74.30
27940;DHT22;15275;51.716;14.324;2022-09-09T07:31:28;21.20;74.30
27940;DHT22;15275;51.716;14.324;2022-09-09T07:33:58;21.30;74.00
27940;DHT22;15275;51.716;14.324;2022-09-09T07:36:30;21.50;73.70
27940;DHT22;15275;51.716;14.324;2022-09-09T07:39:03;21.60;73.20
27940;DHT22;15275;51.716;14.324;2022-09-09T07:41:39;21.70;73.10
27940;DHT22;15275;51.716;14.324;2022-09-09T07:44:21;21.80;73.20
27940;DHT22;15275;51.716;14.324;2022-09-09T07:46:48;21.90;72.00
27940;DHT22;15275;51.716;14.324;2022-09-09T07:49:14;22.10;72.60
27940;DHT22;15275;51.716;14.324;2022-09-09T07:51:43;22.20;72.30
27940;DHT22;15275;51.716;14.324;2022-09-09T07:54:12;22.30;71.80
27940;DHT22;15275;51.716;14.324;2022-09-09T07:56:40;22.40;71.40
27940;DHT22;15275;51.716;14.324;2022-09-09T07:59:07;22.50;71.50
27940;DHT22;15275;51.716;14.324;2022-09-09T08:01:37;22.50;71.30
27940;DHT22;15275;51.716;14.324;2022-09-09T08:04:17;22.60;70.80
27940;DHT22;15275;51.716;14.324;2022-09-09T08:06:52;22.70;70.70
27940;DHT22;15275;51.716;14.324;2022-09-09T08:09:21;22.80;70.40
27940;DHT22;15275;51.716;14.324;2022-09-09T08:11:50;22.90;71.20
27940;DHT22;15275;51.716;14.324;2022-09-09T08:14:16;23.00;71.20
27940;DHT22;15275;51.716;14.324;2022-09-09T08:16:45;23.10;70.40
27940;DHT22;15275;51.716;14.324;2022-09-09T08:19:13;23.10;70.20
27940;DHT22;15275;51.716;14.324;2022-09-09T08:21:41;23.20;70.30
27940;DHT22;15275;51.716;14.324;2022-09-09T08:24:09;23.30;70.00
27940;DHT22;15275;51.716;14.324;2022-09-09T08:26:38;23.40;69.70
27940;DHT22;15275;51.716;14.324;2022-09-09T08:29:08;23.40;69.60
27940;DHT22;15275;51.716;14.324;2022-09-09T08:31:48;23.50;69.50
27940;DHT22;15275;51.716;14.324;2022-09-09T08:34:15;23.60;68.80
27940;DHT22;15275;51.716;14.324;2022-09-09T08:36:43;23.60;68.90
27940;DHT22;15275;51.716;14.324;2022-09-09T08:39:12;23.70;68.60
27940;DHT22;15275;51.716;14.324;2022-09-09T08:44:41;23.80;67.80
27940;DHT22;15275;51.716;14.324;2022-09-09T08:53:16;23.90;67.80
27940;DHT22;15275;51.716;14.324;2022-09-09T08:55:54;24.00;67.50
27940;DHT22;15275;51.716;14.324;2022-09-09T08:58:25;24.00;67.00
27940;DHT22;15275;51.716;14.324;2022-09-09T09:01:14;24.00;67.30
27940;DHT22;15275;51.716;14.324;2022-09-09T09:11:57;24.20;66.40
27940;DHT22;15275;51.716;14.324;2022-09-09T09:14:30;24.20;66.40
27940;DHT22;15275;51.716;14.324;2022-09-09T09:17:10;24.30;66.60
27940;DHT22;15275;51.716;14.324;2022-09-09T09:19:40;24.30;66.00
27940;DHT22;15275;51.716;14.324;2022-09-09T09:25:00;24.40;65.60
27940;DHT22;15275;51.716;14.324;2022-09-09T09:27:43;24.50;66.00
27940;DHT22;15275;51.716;14.324;2022-09-09T09:30:52;24.60;65.00
27940;DHT22;15275;51.716;14.324;2022-09-09T09:36:16;24.70;64.50
27940;DHT22;15275;51.716;14.324;2022-09-09T09:39:21;24.80;65.40
27940;DHT22;15275;51.716;14.324;2022-09-09T09:41:57;24.90;64.10
27940;DHT22;15275;51.716;14.324;2022-09-09T09:44:28;25.00;65.00
27940;DHT22;15275;51.716;14.324;2022-09-09T09:47:20;25.00;64.60
27940;DHT22;15275;51.716;14.324;2022-09-09T09:49:54;25.10;64.40
27940;DHT22;15275;51.716;14.324;2022-09-09T09:52:31;25.20;64.50
27940;DHT22;15275;51.716;14.324;2022-09-09T09:55:03;25.30;63.70
27940;DHT22;15275;51.716;14.324;2022-09-09T09:57:33;25.40;64.40
27940;DHT22;15275;51.716;14.324;2022-09-09T10:02:41;25.60;63.30
27940;DHT22;15275;51.716;14.324;2022-09-09T10:07:59;25.70;63.50
27940;DHT22;15275;51.716;14.324;2022-09-09T10:13:50;25.90;62.60
27940;DHT22;15275;51.716;14.324;2022-09-09T10:19:16;25.90;62.80
27940;DHT22;15275;51.716;14.324;2022-09-09T10:21:52;26.00;62.70
27940;DHT22;15275;51.716;14.324;2022-09-09T10:30:09;26.20;61.80
27940;DHT22;15275;51.716;14.324;2022-09-09T10:33:19;26.30;61.50
27940;DHT22;15275;51.716;14.324;2022-09-09T10:36:12;26.30;61.00
27940;DHT22;15275;51.716;14.324;2022-09-09T10:38:52;26.30;60.80
27940;DHT22;15275;51.716;14.324;2022-09-09T10:41:31;26.30;61.30
27940;DHT22;15275;51.716;14.324;2022-09-09T10:44:12;26.20;61.60
27940;DHT22;15275;51.716;14.324;2022-09-09T10:55:51;26.10;61.80
27940;DHT22;15275;51.716;14.324;2022-09-09T10:58:27;26.00;61.60
27940;DHT22;15275;51.716;14.324;2022-09-09T11:01:10;26.00;61.60
27940;DHT22;15275;51.716;14.324;2022-09-09T11:03:42;25.90;61.70
27940;DHT22;15275;51.716;14.324;2022-09-09T11:06:17;25.90;62.40
27940;DHT22;15275;51.716;14.324;2022-09-09T11:08:45;25.90;62.30
27940;DHT22;15275;51.716;14.324;2022-09-09T11:11:20;25.90;62.90
27940;DHT22;15275;51.716;14.324;2022-09-09T11:19:18;25.80;63.00
27940;DHT22;15275;51.716;14.324;2022-09-09T11:21:58;25.80;64.00
27940;DHT22;15275;51.716;14.324;2022-09-09T11:24:39;25.80;63.60
27940;DHT22;15275;51.716;14.324;2022-09-09T11:29:44;25.80;63.60
27940;DHT22;15275;51.716;14.324;2022-09-09T11:38:18;26.00;64.20
27940;DHT22;15275;51.716;14.324;2022-09-09T11:40:45;26.20;63.50
27940;DHT22;15275;51.716;14.324;2022-09-09T11:45:51;26.40;63.80
27940;DHT22;15275;51.716;14.324;2022-09-09T11:48:38;26.50;62.30
27940;DHT22;15275;51.716;14.324;2022-09-09T11:51:24;26.60;61.00
27940;DHT22;15275;51.716;14.324;2022-09-09T11:53:52;26.70;61.10
27940;DHT22;15275;51.716;14.324;2022-09-09T11:56:31;26.80;61.60
27940;DHT22;15275;51.716;14.324;2022-09-09T11:59:30;26.80;60.70
27940;DHT22;15275;51.716;14.324;2022-09-09T12:02:09;26.90;60.20
27940;DHT22;15275;51.716;14.324;2022-09-09T12:04:39;26.90;59.70
27940;DHT22;15275;51.716;14.324;2022-09-09T12:09:55;27.00;59.00
27940;DHT22;15275;51.716;14.324;2022-09-09T12:12:28;27.10;57.60
27940;DHT22;15275;51.716;14.324;2022-09-09T12:17:57;27.30;58.00
27940;DHT22;15275;51.716;14.324;2022-09-09T12:20:35;27.30;57.50
27940;DHT22;15275;51.716;14.324;2022-09-09T12:29:14;27.40;57.20
27940;DHT22;15275;51.716;14.324;2022-09-09T12:34:31;27.50;57.30
27940;DHT22;15275;51.716;14.324;2022-09-09T12:37:17;27.50;58.00
27940;DHT22;15275;51.716;14.324;2022-09-09T12:42:24;27.60;56.80
27940;DHT22;15275;51.716;14.324;2022-09-09T12:44:59;27.70;58.50
27940;DHT22;15275;51.716;14.324;2022-09-09T12:50:51;27.70;57.40
27940;DHT22;15275;51.716;14.324;2022-09-09T12:53:29;27.80;57.20
27940;DHT22;15275;51.716;14.324;2022-09-09T12:56:03;27.90;56.50
27940;DHT22;15275;51.716;14.324;2022-09-09T12:58:31;27.90;56.70
27940;DHT22;15275;51.716;14.324;2022-09-09T13:00:59;27.90;56.90
27940;DHT22;15275;51.716;14.324;2022-09-09T13:03:25;27.90;56.60
27940;DHT22;15275;51.716;14.324;2022-09-09T13:05:53;27.80;56.40
27940;DHT22;15275;51.716;14.324;2022-09-09T13:08:25;27.70;55.90
27940;DHT22;15275;51.716;14.324;2022-09-09T13:11:02;27.60;56.30
27940;DHT22;15275;51.716;14.324;2022-09-09T13:13:37;27.60;56.70
27940;DHT22;15275;51.716;14.324;2022-09-09T13:16:07;27.50;56.80
27940;DHT22;15275;51.716;14.324;2022-09-09T13:18:45;27.40;56.60
27940;DHT22;15275;51.716;14.324;2022-09-09T13:21:12;27.30;56.50
27940;DHT22;15275;51.716;14.324;2022-09-09T13:23:38;27.30;56.60
27940;DHT22;15275;51.716;14.324;2022-09-09T13:28:49;27.10;56.60
27940;DHT22;15275;51.716;14.324;2022-09-09T13:31:24;27.10;56.50
27940;DHT22;15275;51.716;14.324;2022-09-09T13:33:54;27.10;56.40
27940;DHT22;15275;51.716;14.324;2022-09-09T13:36:31;27.00;57.20
27940;DHT22;15275;51.716;14.324;2022-09-09T13:39:02;27.00;56.50
27940;DHT22;15275;51.716;14.324;2022-09-09T13:41:30;26.90;56.80
27940;DHT22;15275;51.716;14.324;2022-09-09T13:43:58;26.90;57.50
27940;DHT22;15275;51.716;14.324;2022-09-09T13:49:01;26.90;58.70
27940;DHT22;15275;51.716;14.324;2022-09-09T13:51:42;26.90;58.20
27940;DHT22;15275;51.716;14.324;2022-09-09T13:54:17;26.90;57.90
27940;DHT22;15275;51.716;14.324;2022-09-09T13:56:44;26.90;58.10
27940;DHT22;15275;51.716;14.324;2022-09-09T13:59:18;26.90;57.60
27940;DHT22;15275;51.716;14.324;2022-09-09T14:01:49;26.90;57.90
27940;DHT22;15275;51.716;14.324;2022-09-09T14:04:17;26.90;58.00
27940;DHT22;15275;51.716;14.324;2022-09-09T14:06:46;27.00;57.40
27940;DHT22;15275;51.716;14.324;2022-09-09T14:09:14;27.00;57.60
27940;DHT22;15275;51.716;14.324;2022-09-09T14:11:42;27.10;57.40
27940;DHT22;15275;51.716;14.324;2022-09-09T14:14:08;27.10;58.00
27940;DHT22;15275;51.716;14.324;2022-09-09T14:16:34;27.20;57.60
27940;DHT22;15275;51.716;14.324;2022-09-09T14:19:00;27.30;57.60
27940;DHT22;15275;51.716;14.324;2022-09-09T14:21:27;27.40;57.50
27940;DHT22;15275;51.716;14.324;2022-09-09T14:23:53;27.50;57.40
27940;DHT22;15275;51.716;14.324;2022-09-09T14:26:21;27.60;57.40
27940;DHT22;15275;51.716;14.324;2022-09-09T14:28:48;27.60;56.90
27940;DHT22;15275;51.716;14.324;2022-09-09T14:31:14;27.60;57.10
27940;DHT22;15275;51.716;14.324;2022-09-09T14:33:41;27.70;57.50
27940;DHT22;15275;51.716;14.324;2022-09-09T14:36:07;27.70;57.70
27940;DHT22;15275;51.716;14.324;2022-09-09T14:38:35;27.80;57.90
27940;DHT22;15275;51.716;14.324;2022-09-09T14:41:13;27.80;57.50
27940;DHT22;15275;51.716;14.324;2022-09-09T14:43:43;27.80;57.50
27940;DHT22;15275;51.716;14.324;2022-09-09T14:46:11;27.80;57.50
27940;DHT22;15275;51.716;14.324;2022-09-09T14:48:38;27.80;57.80
27940;DHT22;15275;51.716;14.324;2022-09-09T14:51:11;27.80;57.70
27940;DHT22;15275;51.716;14.324;2022-09-09T14:53:48;27.80;57.90
27940;DHT22;15275;51.716;14.324;2022-09-09T14:56:19;27.80;58.50
27940;DHT22;15275;51.716;14.324;2022-09-09T14:58:48;27.90;58.20
27940;DHT22;15275;51.716;14.324;2022-09-09T15:01:18;27.90;57.90
27940;DHT22;15275;51.716;14.324;2022-09-09T15:03:50;27.90;58.00
27940;DHT22;15275;51.716;14.324;2022-09-09T15:06:17;27.90;57.70
27940;DHT22;15275;51.716;14.324;2022-09-09T15:08:45;27.90;57.70
27940;DHT22;15275;51.716;14.324;2022-09-09T15:11:12;27.90;57.20
27940;DHT22;15275;51.716;14.324;2022-09-09T15:13:40;27.90;56.60
27940;DHT22;15275;51.716;14.324;2022-09-09T15:16:15;27.90;56.50
27940;DHT22;15275;51.716;14.324;2022-09-09T15:18:43;27.90;56.20
27940;DHT22;15275;51.716;14.324;2022-09-09T15:21:15;27.90;56.20
27940;DHT22;15275;51.716;14.324;2022-09-09T15:23:42;27.90;56.30
27940;DHT22;15275;51.716;14.324;2022-09-09T15:26:09;27.90;56.40
27940;DHT22;15275;51.716;14.324;2022-09-09T15:28:36;27.90;56.30
27940;DHT22;15275;51.716;14.324;2022-09-09T15:31:07;27.90;56.00
27940;DHT22;15275;51.716;14.324;2022-09-09T15:33:52;27.90;55.60
27940;DHT22;15275;51.716;14.324;2022-09-09T15:36:36;27.90;55.50
27940;DHT22;15275;51.716;14.324;2022-09-09T15:39:06;27.80;55.90
27940;DHT22;15275;51.716;14.324;2022-09-09T15:41:33;27.80;56.10
27940;DHT22;15275;51.716;14.324;2022-09-09T15:44:00;27.70;56.20
27940;DHT22;15275;51.716;14.324;2022-09-09T15:46:27;27.70;56.30
27940;DHT22;15275;51.716;14.324;2022-09-09T15:49:07;27.70;56.30
27940;DHT22;15275;51.716;14.324;2022-09-09T15:51:39;27.80;56.40
27940;DHT22;15275;51.716;14.324;2022-09-09T15:54:08;27.70;56.30
27940;DHT22;15275;51.716;14.324;2022-09-09T15:56:47;27.70;56.60
27940;DHT22;15275;51.716;14.324;2022-09-09T15:59:16;27.70;56.50
27940;DHT22;15275;51.716;14.324;2022-09-09T16:01:42;27.70;56.40
27940;DHT22;15275;51.716;14.324;2022-09-09T16:04:08;27.70;56.70
27940;DHT22;15275;51.716;14.324;2022-09-09T16:06:34;27.70;56.60
27940;DHT22;15275;51.716;14.324;2022-09-09T16:09:03;27.70;56.70
27940;DHT22;15275;51.716;14.324;2022-09-09T16:11:33;27.70;56.60
27940;DHT22;15275;51.716;14.324;2022-09-09T16:14:01;27.70;56.80
27940;DHT22;15275;51.716;14.324;2022-09-09T16:16:29;27.70;56.80
27940;DHT22;15275;51.716;14.324;2022-09-09T16:19:00;27.60;56.70
27940;DHT22;15275;51.716;14.324;2022-09-09T16:21:31;27.60;56.70
27940;DHT22;15275;51.716;14.324;2022-09-09T16:24:01;27.60;56.90
27940;DHT22;15275;51.716;14.324;2022-09-09T16:26:30;27.60;57.10
27940;DHT22;15275;51.716;14.324;2022-09-09T16:28:57;27.50;57.40
27940;DHT22;15275;51.716;14.324;2022-09-09T16:31:27;27.50;57.20
27940;DHT22;15275;51.716;14.324;2022-09-09T16:33:54;27.40;57.50
27940;DHT22;15275;51.716;14.324;2022-09-09T16:36:24;27.40;57.70
27940;DHT22;15275;51.716;14.324;2022-09-09T16:38:57;27.40;57.30
27940;DHT22;15275;51.716;14.324;2022-09-09T16:41:25;27.30;57.70
27940;DHT22;15275;51.716;14.324;2022-09-09T16:44:04;27.30;57.60
27940;DHT22;15275;51.716;14.324;2022-09-09T16:46:36;27.20;57.70
27940;DHT22;15275;51.716;14.324;2022-09-09T16:49:06;27.10;57.90
27940;DHT22;15275;51.716;14.324;2022-09-09T16:51:40;27.10;57.70
27940;DHT22;15275;51.716;14.324;2022-09-09T16:54:08;27.00;57.70
27940;DHT22;15275;51.716;14.324;2022-09-09T16:56:37;26.90;57.80
27940;DHT22;15275;51.716;14.324;2022-09-09T16:59:07;26.80;57.70
27940;DHT22;15275;51.716;14.324;2022-09-09T17:01:38;26.70;57.70
27940;DHT22;15275;51.716;14.324;2022-09-09T17:04:09;26.60;57.70
27940;DHT22;15275;51.716;14.324;2022-09-09T17:06:37;26.50;57.90
27940;DHT22;15275;51.716;14.324;2022-09-09T17:09:06;26.40;58.00
27940;DHT22;15275;51.716;14.324;2022-09-09T17:11:33;26.30;58.20
27940;DHT22;15275;51.716;14.324;2022-09-09T17:13:59;26.10;58.50
27940;DHT22;15275;51.716;14.324;2022-09-09T17:16:31;26.00;58.60
27940;DHT22;15275;51.716;14.324;2022-09-09T17:18:59;25.90;59.00
27940;DHT22;15275;51.716;14.324;2022-09-09T17:21:27;25.70;58.90
27940;DHT22;15275;51.716;14.324;2022-09-09T17:23:55;25.60;59.20
27940;DHT22;15275;51.716;14.324;2022-09-09T17:26:23;25.50;59.30
27940;DHT22;15275;51.716;14.324;2022-09-09T17:28:52;25.40;59.20
27940;DHT22;15275;51.716;14.324;2022-09-09T17:31:20;25.30;59.20
27940;DHT22;15275;51.716;14.324;2022-09-09T17:33:47;25.10;59.40
27940;DHT22;15275;51.716;14.324;2022-09-09T17:36:34;25.10;59.40
27940;DHT22;15275;51.716;14.324;2022-09-09T17:39:03;24.90;59.90
27940;DHT22;15275;51.716;14.324;2022-09-09T17:41:36;24.80;59.90
27940;DHT22;15275;51.716;14.324;2022-09-09T17:44:03;24.70;60.00
27940;DHT22;15275;51.716;14.324;2022-09-09T17:46:38;24.60;60.20
27940;DHT22;15275;51.716;14.324;2022-09-09T17:49:14;24.50;60.50
27940;DHT22;15275;51.716;14.324;2022-09-09T17:51:43;24.40;60.60
27940;DHT22;15275;51.716;14.324;2022-09-09T17:54:12;24.30;60.10
27940;DHT22;15275;51.716;14.324;2022-09-09T17:56:40;24.20;60.10
27940;DHT22;15275;51.716;14.324;2022-09-09T17:59:08;24.10;59.80